createdAt,value
2023-02-15T00:00:00.931Z,3.35
2023-02-15T00:02:27.941Z,3.31
2023-02-15T00:04:56.963Z,3.35
2023-02-15T00:07:23.823Z,3.22
2023-02-15T00:09:50.804Z,3.30
2023-02-15T00:12:17.969Z,3.28
2023-02-15T00:14:45.301Z,3.09
2023-02-15T00:17:12.137Z,3.04
2023-02-15T00:19:38.940Z,3.17
2023-02-15T00:22:05.778Z,3.14
2023-02-15T00:24:32.944Z,3.04
2023-02-15T00:26:59.854Z,3.13
2023-02-15T00:29:26.692Z,3.08
2023-02-15T00:31:54.198Z,3.09
2023-02-15T00:34:24.842Z,3.12
2023-02-15T00:36:52.282Z,2.85
2023-02-15T00:39:19.782Z,3.06
2023-02-15T00:41:48.176Z,3.06
2023-02-15T00:44:15.436Z,2.98
2023-02-15T00:46:42.514Z,3.01
2023-02-15T00:49:09.994Z,2.93
2023-02-15T00:51:36.883Z,2.80
2023-02-15T00:54:03.730Z,2.93
2023-02-15T00:56:30.599Z,2.92
2023-02-15T00:58:57.503Z,2.99
2023-02-15T01:01:24.752Z,2.97
2023-02-15T01:03:51.690Z,2.93
2023-02-15T01:06:19.087Z,2.95
2023-02-15T01:08:47.129Z,2.91
2023-02-15T01:11:24.662Z,2.98
2023-02-15T01:13:57.247Z,2.91
2023-02-15T01:16:27.053Z,2.99
2023-02-15T01:18:55.610Z,2.95
2023-02-15T01:21:24.848Z,2.97
2023-02-15T01:23:51.723Z,2.97
2023-02-15T01:26:18.619Z,2.98
2023-02-15T01:28:46.421Z,2.99
2023-02-15T01:31:18.413Z,2.96
2023-02-15T01:33:46.246Z,2.92
2023-02-15T01:36:13.518Z,2.92
2023-02-15T01:38:43.093Z,2.71
2023-02-15T01:41:25.483Z,2.75
2023-02-15T01:43:58.769Z,2.73
2023-02-15T01:46:34.132Z,2.58
2023-02-15T01:49:12.399Z,2.62
2023-02-15T01:51:43.534Z,2.70
2023-02-15T01:54:28.523Z,2.75
2023-02-15T01:57:03.158Z,2.67
2023-02-15T01:59:32.059Z,2.58
2023-02-15T02:02:00.809Z,2.64
2023-02-15T02:04:36.117Z,2.52
2023-02-15T02:07:04.766Z,2.64
2023-02-15T02:09:31.669Z,2.67
2023-02-15T02:11:59.266Z,2.37
2023-02-15T02:14:26.627Z,2.59
2023-02-15T02:17:22.899Z,2.61
2023-02-15T02:20:29.969Z,2.55
2023-02-15T02:23:28.217Z,2.54
2023-02-15T02:26:32.355Z,2.54
2023-02-15T02:29:22.097Z,2.54
2023-02-15T02:32:25.982Z,2.50
2023-02-15T02:35:01.498Z,2.46
2023-02-15T02:38:04.267Z,2.43
2023-02-15T02:40:54.811Z,2.53
2023-02-15T02:43:44.830Z,2.51
2023-02-15T02:46:23.567Z,2.43
2023-02-15T02:48:51.038Z,2.30
2023-02-15T02:51:22.332Z,2.41
2023-02-15T02:53:54.656Z,2.39
2023-02-15T02:56:48.594Z,2.44
2023-02-15T02:59:27.362Z,2.28
2023-02-15T03:02:08.931Z,2.36
2023-02-15T03:04:43.325Z,2.29
2023-02-15T03:07:16.321Z,2.31
2023-02-15T03:09:47.460Z,2.19
2023-02-15T03:12:25.393Z,2.36
2023-02-15T03:15:03.468Z,2.39
2023-02-15T03:17:35.271Z,2.27
2023-02-15T03:20:10.285Z,2.38
2023-02-15T03:22:43.763Z,2.38
2023-02-15T03:25:47.541Z,2.31
2023-02-15T03:28:20.280Z,2.28
2023-02-15T03:30:53.019Z,2.33
2023-02-15T03:33:21.958Z,2.27
2023-02-15T03:36:04.535Z,2.29
2023-02-15T03:38:42.488Z,2.23
2023-02-15T03:41:11.222Z,2.15
2023-02-15T03:44:00.699Z,2.29
2023-02-15T03:46:45.198Z,2.15
2023-02-15T03:49:27.851Z,2.16
2023-02-15T03:51:57.267Z,2.19
2023-02-15T03:54:44.070Z,2.14
2023-02-15T03:57:34.633Z,2.16
2023-02-15T04:00:24.287Z,2.04
2023-02-15T04:03:27.886Z,2.02
2023-02-15T04:05:56.237Z,2.05
2023-02-15T04:08:43.058Z,2.00
2023-02-15T04:11:09.904Z,2.08
2023-02-15T04:13:37.359Z,1.95
2023-02-15T04:16:05.290Z,2.00
2023-02-15T04:19:02.708Z,1.97
2023-02-15T04:21:50.213Z,1.98
2023-02-15T04:24:36.090Z,1.79
2023-02-15T04:27:05.243Z,1.96
2023-02-15T04:29:32.514Z,1.84
2023-02-15T04:32:01.298Z,1.96
2023-02-15T04:34:28.263Z,1.68
2023-02-15T04:36:55.093Z,1.93
2023-02-15T04:39:21.867Z,1.90
2023-02-15T04:41:48.924Z,1.94
2023-02-15T04:44:16.229Z,1.81
2023-02-15T04:46:43.028Z,1.82
2023-02-15T04:49:10.430Z,1.90
2023-02-15T04:51:37.690Z,1.71
2023-02-15T04:54:04.771Z,1.83
2023-02-15T04:56:32.225Z,1.79
2023-02-15T04:58:59.069Z,1.79
2023-02-15T05:01:26.081Z,1.72
2023-02-15T05:03:53.043Z,1.75
2023-02-15T05:06:19.921Z,1.71
2023-02-15T05:08:46.790Z,1.71
2023-02-15T05:11:13.606Z,1.56
2023-02-15T05:13:40.604Z,1.61
2023-02-15T05:16:07.477Z,1.31
2023-02-15T05:18:34.389Z,1.64
2023-02-15T05:21:01.265Z,1.55
2023-02-15T05:23:28.139Z,1.72
2023-02-15T05:26:13.495Z,1.64
2023-02-15T05:28:40.814Z,1.69
2023-02-15T05:31:13.252Z,1.72
2023-02-15T05:33:41.000Z,1.74
2023-02-15T05:36:08.949Z,1.67
2023-02-15T05:38:38.336Z,1.63
2023-02-15T05:41:06.749Z,1.69
2023-02-15T05:43:33.983Z,1.68
2023-02-15T05:46:01.827Z,1.68
2023-02-15T05:48:29.510Z,1.67
2023-02-15T05:51:03.623Z,1.70
2023-02-15T05:53:33.835Z,1.72
2023-02-15T05:56:03.318Z,1.65
2023-02-15T05:58:39.907Z,1.70
2023-02-15T06:01:18.113Z,1.73
2023-02-15T06:03:46.218Z,1.71
2023-02-15T06:06:13.213Z,1.65
2023-02-15T06:08:40.140Z,1.68
2023-02-15T06:11:07.956Z,1.69
2023-02-15T06:13:38.361Z,1.61
2023-02-15T06:16:07.209Z,1.58
2023-02-15T06:18:34.457Z,1.60
2023-02-15T06:21:01.358Z,1.59
2023-02-15T06:23:28.284Z,1.55
2023-02-15T06:25:55.104Z,1.60
2023-02-15T06:28:21.994Z,1.57
2023-02-15T06:30:48.925Z,1.59
2023-02-15T06:33:15.740Z,1.64
2023-02-15T06:35:42.631Z,1.63
2023-02-15T06:38:09.436Z,1.62
2023-02-15T06:40:36.364Z,1.55
2023-02-15T06:43:03.208Z,1.52
2023-02-15T06:45:30.197Z,1.57
2023-02-15T06:47:57.018Z,1.51
2023-02-15T06:50:23.820Z,1.48
2023-02-15T06:52:50.742Z,1.50
2023-02-15T06:55:17.540Z,1.51
2023-02-15T06:57:44.365Z,1.46
2023-02-15T07:00:12.054Z,1.46
2023-02-15T07:02:38.877Z,1.37
2023-02-15T07:05:06.090Z,1.46
2023-02-15T07:07:33.055Z,1.37
2023-02-15T07:09:59.961Z,1.54
2023-02-15T07:12:42.271Z,1.52
2023-02-15T07:15:16.236Z,1.49
2023-02-15T07:17:44.374Z,1.58
2023-02-15T07:20:23.154Z,1.62
2023-02-15T07:22:52.577Z,1.60
2023-02-15T07:25:19.615Z,1.64
2023-02-15T07:27:46.679Z,1.64
2023-02-15T07:30:17.011Z,1.68
2023-02-15T07:33:05.341Z,1.66
2023-02-15T07:35:33.433Z,1.66
2023-02-15T07:38:00.285Z,1.46
2023-02-15T07:40:27.353Z,1.62
2023-02-15T07:42:55.551Z,1.73
2023-02-15T07:45:23.063Z,1.57
2023-02-15T07:47:50.104Z,1.66
2023-02-15T07:50:16.960Z,1.78
2023-02-15T07:52:43.784Z,1.75
2023-02-15T07:55:13.623Z,1.70
2023-02-15T07:57:49.235Z,1.80
2023-02-15T08:00:19.365Z,1.82
2023-02-15T08:03:10.496Z,1.79
2023-02-15T08:05:37.740Z,1.90
2023-02-15T08:08:05.044Z,1.78
2023-02-15T08:10:50.282Z,1.91
2023-02-15T08:13:17.197Z,1.93
2023-02-15T08:15:52.881Z,1.96
2023-02-15T08:18:19.816Z,2.04
2023-02-15T08:20:52.890Z,2.07
2023-02-15T08:23:19.770Z,1.99
2023-02-15T08:25:46.655Z,2.13
2023-02-15T08:28:13.481Z,2.15
2023-02-15T08:30:40.350Z,2.19
2023-02-15T08:33:07.165Z,2.17
2023-02-15T08:35:35.026Z,2.25
2023-02-15T08:38:01.848Z,2.27
2023-02-15T08:40:28.831Z,2.26
2023-02-15T08:42:55.653Z,2.35
2023-02-15T08:45:22.552Z,2.37
2023-02-15T08:47:49.357Z,2.40
2023-02-15T08:50:16.201Z,2.46
2023-02-15T08:52:43.015Z,2.43
2023-02-15T08:55:09.793Z,2.57
2023-02-15T08:57:36.626Z,2.59
2023-02-15T09:00:05.638Z,2.65
2023-02-15T09:02:32.608Z,2.71
2023-02-15T09:04:59.400Z,2.72
2023-02-15T09:07:26.177Z,2.77
2023-02-15T09:09:52.972Z,2.79
2023-02-15T09:12:19.839Z,2.82
2023-02-15T09:14:46.617Z,2.87
2023-02-15T09:17:15.978Z,2.91
2023-02-15T09:19:42.941Z,2.94
2023-02-15T09:22:09.790Z,2.97
2023-02-15T09:24:36.600Z,2.95
2023-02-15T09:27:03.404Z,2.99
2023-02-15T09:29:30.189Z,2.98
2023-02-15T09:31:57.151Z,3.02
2023-02-15T09:34:24.560Z,2.90
2023-02-15T09:36:52.170Z,3.07
2023-02-15T09:39:28.258Z,3.12
2023-02-15T09:42:20.444Z,3.16
2023-02-15T09:45:08.000Z,3.17
2023-02-15T09:48:00.892Z,3.21
2023-02-15T09:50:55.583Z,3.30
2023-02-15T09:53:54.561Z,3.39
2023-02-15T09:56:58.252Z,3.26
2023-02-15T09:59:36.334Z,3.50
2023-02-15T10:02:38.221Z,3.51
2023-02-15T10:05:38.180Z,3.46
2023-02-15T10:08:26.350Z,3.49
2023-02-15T10:11:26.781Z,3.46
2023-02-15T10:14:38.730Z,3.52
2023-02-15T10:17:48.946Z,3.84
2023-02-15T10:20:22.959Z,3.79
2023-02-15T10:23:07.935Z,3.83
2023-02-15T10:26:01.783Z,3.83
2023-02-15T10:29:01.762Z,3.86
2023-02-15T10:31:51.841Z,3.66
2023-02-15T10:34:40.452Z,3.88
2023-02-15T10:37:28.825Z,3.96
2023-02-15T10:40:28.810Z,4.01
2023-02-15T10:43:11.949Z,4.15
2023-02-15T10:46:03.785Z,4.12
2023-02-15T10:49:08.593Z,4.23
2023-02-15T10:51:48.527Z,4.27
2023-02-15T10:54:46.175Z,4.33
2023-02-15T10:57:25.757Z,4.00
2023-02-15T11:00:11.906Z,4.29
2023-02-15T11:03:06.638Z,4.33
2023-02-15T11:06:05.752Z,4.46
2023-02-15T11:08:39.088Z,4.51
2023-02-15T11:11:14.885Z,4.59
2023-02-15T11:13:48.754Z,4.58
2023-02-15T11:16:22.361Z,4.54
2023-02-15T11:18:55.632Z,4.74
2023-02-15T11:21:29.260Z,4.78
2023-02-15T11:23:56.951Z,4.80
2023-02-15T11:26:35.338Z,4.88
2023-02-15T11:29:33.466Z,4.92
2023-02-15T11:32:15.514Z,5.03
2023-02-15T11:35:12.573Z,5.02
2023-02-15T11:37:45.204Z,5.14
2023-02-15T11:40:50.262Z,5.20
2023-02-15T11:43:30.056Z,5.28
2023-02-15T11:45:57.131Z,5.43
2023-02-15T11:48:24.298Z,5.48
2023-02-15T11:50:51.169Z,5.47
2023-02-15T11:53:28.638Z,5.49
2023-02-15T11:55:56.562Z,5.86
2023-02-15T11:58:44.320Z,5.81
2023-02-15T12:01:26.147Z,5.94
2023-02-15T12:03:56.686Z,5.95
2023-02-15T12:06:31.588Z,6.05
2023-02-15T12:09:25.517Z,6.12
2023-02-15T12:11:54.610Z,6.33
2023-02-15T12:14:22.002Z,6.44
2023-02-15T12:16:52.846Z,6.42
2023-02-15T12:19:40.940Z,6.44
2023-02-15T12:22:33.690Z,6.67
2023-02-15T12:25:23.523Z,6.67
2023-02-15T12:27:51.230Z,6.69
2023-02-15T12:30:26.202Z,6.77
2023-02-15T12:32:58.118Z,6.83
2023-02-15T12:35:30.665Z,6.83
2023-02-15T12:38:26.499Z,7.00
2023-02-15T12:41:04.065Z,7.19
2023-02-15T12:43:39.104Z,7.13
2023-02-15T12:46:27.372Z,7.28
2023-02-15T12:49:21.839Z,7.39
2023-02-15T12:51:59.410Z,7.41
2023-02-15T12:54:40.982Z,7.58
2023-02-15T12:57:30.254Z,7.50
2023-02-15T13:00:02.486Z,7.53
2023-02-15T13:02:46.560Z,7.60
2023-02-15T13:05:39.872Z,7.61
2023-02-15T13:08:37.377Z,7.71
2023-02-15T13:11:10.757Z,7.69
2023-02-15T13:13:54.150Z,7.74
2023-02-15T13:16:38.590Z,7.86
2023-02-15T13:19:30.904Z,7.98
2023-02-15T13:21:59.042Z,7.96
2023-02-15T13:24:31.002Z,7.95
2023-02-15T13:27:14.172Z,8.01
2023-02-15T13:29:59.062Z,8.02
2023-02-15T13:32:34.803Z,8.15
2023-02-15T13:35:06.610Z,8.22
2023-02-15T13:37:51.723Z,8.21
2023-02-15T13:40:52.326Z,8.22
2023-02-15T13:43:59.401Z,8.18
2023-02-15T13:46:53.756Z,8.36
2023-02-15T13:49:48.237Z,8.35
2023-02-15T13:52:23.280Z,8.41
2023-02-15T13:55:15.287Z,8.50
2023-02-15T13:58:05.715Z,8.54
2023-02-15T14:00:58.117Z,8.60
2023-02-15T14:04:02.528Z,8.68
2023-02-15T14:07:10.605Z,8.75
2023-02-15T14:09:58.647Z,8.77
2023-02-15T14:13:10.152Z,8.69
2023-02-15T14:15:51.570Z,8.83
2023-02-15T14:18:30.046Z,8.92
2023-02-15T14:21:34.309Z,8.94
2023-02-15T14:24:32.179Z,8.98
2023-02-15T14:27:53.282Z,8.84
2023-02-15T14:30:27.640Z,9.03
2023-02-15T14:33:01.082Z,9.06
2023-02-15T14:35:31.386Z,8.98
2023-02-15T14:38:21.388Z,9.03
2023-02-15T14:41:29.943Z,9.16
2023-02-15T14:44:16.978Z,9.23
2023-02-15T14:47:04.967Z,9.32
2023-02-15T14:49:40.935Z,9.18
2023-02-15T14:52:12.487Z,9.29
2023-02-15T14:54:39.166Z,9.36
2023-02-15T14:57:07.309Z,9.39
2023-02-15T14:59:59.232Z,9.41
2023-02-15T15:02:50.045Z,9.50
2023-02-15T15:05:35.034Z,9.51
2023-02-15T15:08:05.702Z,9.51
2023-02-15T15:10:44.987Z,9.47
2023-02-15T15:13:32.806Z,9.51
2023-02-15T15:16:38.133Z,9.58
2023-02-15T15:19:10.873Z,9.58
2023-02-15T15:21:49.844Z,9.60
2023-02-15T15:24:38.380Z,9.60
2023-02-15T15:27:46.456Z,9.64
2023-02-15T15:30:16.000Z,9.78
2023-02-15T15:33:16.106Z,9.71
2023-02-15T15:36:23.541Z,9.75
2023-02-15T15:39:40.456Z,9.75
2023-02-15T15:42:29.268Z,9.68
2023-02-15T15:46:06.057Z,9.76
2023-02-15T15:48:41.396Z,9.84
2023-02-15T15:51:20.364Z,9.79
2023-02-15T15:53:53.917Z,9.72
2023-02-15T15:56:28.980Z,9.56
2023-02-15T15:59:03.937Z,9.72
2023-02-15T16:01:37.192Z,9.69
2023-02-15T16:04:04.147Z,9.65
2023-02-15T16:06:40.145Z,9.59
2023-02-15T16:09:26.424Z,9.58
2023-02-15T16:12:01.221Z,9.61
2023-02-15T16:14:39.628Z,9.63
2023-02-15T16:17:16.745Z,9.44
2023-02-15T16:19:44.750Z,9.48
2023-02-15T16:22:19.343Z,9.44
2023-02-15T16:25:05.034Z,9.40
2023-02-15T16:27:42.540Z,9.35
2023-02-15T16:30:32.879Z,9.11
2023-02-15T16:33:12.938Z,9.11
2023-02-15T16:35:53.990Z,9.03
2023-02-15T16:38:45.450Z,8.95
2023-02-15T16:41:16.860Z,8.86
2023-02-15T16:43:48.672Z,8.84
2023-02-15T16:46:34.058Z,8.84
2023-02-15T16:49:05.835Z,8.77
2023-02-15T16:51:35.383Z,8.71
2023-02-15T16:54:09.053Z,8.69
2023-02-15T16:56:37.286Z,8.60
2023-02-15T16:59:04.374Z,8.60
2023-02-15T17:01:33.640Z,8.47
2023-02-15T17:04:38.945Z,8.51
2023-02-15T17:07:20.707Z,8.47
2023-02-15T17:09:58.048Z,8.38
2023-02-15T17:12:57.204Z,8.40
2023-02-15T17:15:36.580Z,8.27
2023-02-15T17:18:25.843Z,8.37
2023-02-15T17:21:01.072Z,8.34
2023-02-15T17:23:34.644Z,8.29
2023-02-15T17:26:25.197Z,8.27
2023-02-15T17:28:59.500Z,8.25
2023-02-15T17:31:32.860Z,8.22
2023-02-15T17:34:03.305Z,8.05
2023-02-15T17:36:32.013Z,8.19
2023-02-15T17:38:58.760Z,8.22
2023-02-15T17:41:30.075Z,8.22
2023-02-15T17:43:57.486Z,8.12
2023-02-15T17:46:25.641Z,8.09
2023-02-15T17:48:56.024Z,8.09
2023-02-15T17:51:23.499Z,7.77
2023-02-15T17:54:09.414Z,8.07
2023-02-15T17:56:38.210Z,8.10
2023-02-15T17:59:10.204Z,8.15
2023-02-15T18:02:03.688Z,8.03
2023-02-15T18:04:52.115Z,8.18
2023-02-15T18:07:38.159Z,8.07
2023-02-15T18:10:37.213Z,8.08
2023-02-15T18:13:04.834Z,8.13
2023-02-15T18:15:31.735Z,8.08
2023-02-15T18:17:58.627Z,8.04
2023-02-15T18:20:36.850Z,8.01
2023-02-15T18:23:03.733Z,7.89
2023-02-15T18:25:30.567Z,7.92
2023-02-15T18:27:57.427Z,7.78
2023-02-15T18:30:28.023Z,7.82
2023-02-15T18:32:57.672Z,7.76
2023-02-15T18:35:31.979Z,7.75
2023-02-15T18:38:00.718Z,7.71
2023-02-15T18:40:29.139Z,7.59
2023-02-15T18:42:57.129Z,7.59
2023-02-15T18:45:32.828Z,7.43
2023-02-15T18:47:59.846Z,7.55
2023-02-15T18:50:32.776Z,7.50
2023-02-15T18:52:59.622Z,7.54
2023-02-15T18:55:28.237Z,7.54
2023-02-15T18:57:57.032Z,7.48
2023-02-15T19:00:28.531Z,7.43
2023-02-15T19:02:56.121Z,7.13
2023-02-15T19:05:24.191Z,7.23
2023-02-15T19:07:51.784Z,7.17
2023-02-15T19:10:28.736Z,7.08
2023-02-15T19:12:56.179Z,6.94
2023-02-15T19:15:30.822Z,6.92
2023-02-15T19:17:57.779Z,6.86
2023-02-15T19:20:31.361Z,6.87
2023-02-15T19:23:00.377Z,6.82
2023-02-15T19:25:37.596Z,6.80
2023-02-15T19:28:21.109Z,6.68
2023-02-15T19:30:48.142Z,6.73
2023-02-15T19:33:20.600Z,6.75
2023-02-15T19:35:52.383Z,6.71
2023-02-15T19:38:29.143Z,6.63
2023-02-15T19:41:04.777Z,6.61
2023-02-15T19:43:31.741Z,6.42
2023-02-15T19:45:58.598Z,6.58
2023-02-15T19:48:25.479Z,6.45
2023-02-15T19:50:56.833Z,6.43
2023-02-15T19:53:26.660Z,6.42
2023-02-15T19:55:54.503Z,6.40
2023-02-15T19:58:21.899Z,6.31
2023-02-15T20:00:51.102Z,6.25
2023-02-15T20:03:17.989Z,6.18
2023-02-15T20:05:45.191Z,6.03
2023-02-15T20:08:18.387Z,5.82
2023-02-15T20:10:45.967Z,6.03
2023-02-15T20:13:18.899Z,5.93
2023-02-15T20:15:46.616Z,6.06
2023-02-15T20:18:13.754Z,6.05
2023-02-15T20:20:53.632Z,6.03
2023-02-15T20:23:27.964Z,6.07
2023-02-15T20:25:59.726Z,5.95
2023-02-15T20:28:31.276Z,5.72
2023-02-15T20:30:58.460Z,5.86
2023-02-15T20:33:25.374Z,5.82
2023-02-15T20:35:52.496Z,5.76
2023-02-15T20:38:27.999Z,5.60
2023-02-15T20:41:15.744Z,5.77
2023-02-15T20:43:42.684Z,5.67
2023-02-15T20:46:09.762Z,5.55
2023-02-15T20:48:37.009Z,5.60
2023-02-15T20:51:04.499Z,5.44
2023-02-15T20:53:31.948Z,5.52
2023-02-15T20:55:58.858Z,5.43
2023-02-15T20:58:28.752Z,5.47
2023-02-15T21:00:58.373Z,5.45
2023-02-15T21:03:30.810Z,5.50
2023-02-15T21:05:58.854Z,5.51
2023-02-15T21:08:26.743Z,5.43
2023-02-15T21:10:54.060Z,5.34
2023-02-15T21:13:30.827Z,5.38
2023-02-15T21:15:58.536Z,5.25
2023-02-15T21:18:33.189Z,5.36
2023-02-15T21:21:06.344Z,5.27
2023-02-15T21:23:41.079Z,5.16
2023-02-15T21:26:21.415Z,5.19
2023-02-15T21:28:49.169Z,5.19
2023-02-15T21:31:22.629Z,5.21
2023-02-15T21:33:49.957Z,5.20
2023-02-15T21:36:23.920Z,5.08
2023-02-15T21:38:51.160Z,5.10
2023-02-15T21:41:40.020Z,5.15
2023-02-15T21:44:42.160Z,5.07
2023-02-15T21:47:49.848Z,5.04
2023-02-15T21:50:43.880Z,4.91
2023-02-15T21:53:17.000Z,4.88
2023-02-15T21:55:43.782Z,4.79
2023-02-15T21:58:20.754Z,4.75
2023-02-15T22:00:48.202Z,4.84
2023-02-15T22:03:15.166Z,4.79
2023-02-15T22:05:41.983Z,4.81
2023-02-15T22:08:13.929Z,4.62
2023-02-15T22:10:41.558Z,4.63
2023-02-15T22:13:20.206Z,4.46
2023-02-15T22:15:47.434Z,4.64
2023-02-15T22:18:27.696Z,4.58
2023-02-15T22:20:55.948Z,4.70
2023-02-15T22:23:23.652Z,4.76
2023-02-15T22:26:21.955Z,4.63
2023-02-15T22:28:49.091Z,4.79
2023-02-15T22:31:22.213Z,4.73
2023-02-15T22:33:54.583Z,4.78
2023-02-15T22:36:30.202Z,4.55
2023-02-15T22:38:58.151Z,4.65
2023-02-15T22:41:29.475Z,4.71
2023-02-15T22:43:57.023Z,4.49
2023-02-15T22:46:26.015Z,4.65
2023-02-15T22:48:53.291Z,4.63
2023-02-15T22:51:23.829Z,4.60
2023-02-15T22:53:54.513Z,4.54
2023-02-15T22:56:44.761Z,4.36
2023-02-15T22:59:21.998Z,4.58
2023-02-15T23:01:49.444Z,4.52
2023-02-15T23:04:28.481Z,4.51
2023-02-15T23:06:58.216Z,4.40
2023-02-15T23:09:25.251Z,4.33
2023-02-15T23:11:52.809Z,4.38
2023-02-15T23:14:27.272Z,4.39
2023-02-15T23:16:54.754Z,4.33
2023-02-15T23:19:21.884Z,4.33
2023-02-15T23:21:48.858Z,4.25
2023-02-15T23:24:24.408Z,4.18
2023-02-15T23:26:51.671Z,3.87
2023-02-15T23:29:24.670Z,4.09
2023-02-15T23:31:54.913Z,4.07
2023-02-15T23:34:29.077Z,4.03
2023-02-15T23:36:57.001Z,3.85
2023-02-15T23:39:47.321Z,4.07
2023-02-15T23:42:23.204Z,4.10
2023-02-15T23:44:50.247Z,4.07
2023-02-15T23:47:43.245Z,3.99
2023-02-15T23:50:38.680Z,4.04
2023-02-15T23:53:05.531Z,3.94
2023-02-15T23:55:41.374Z,3.92
2023-02-15T23:58:16.979Z,3.70
